YBHI

Details ICAO YBHI (BHQ)
Name Broken Hill
Region Australia
Timezone Australia/Broken_Hill (UTC+10.5)
Plans Departing 27
Arriving 24
Stats Elevation 958 ft / 292 m (AMSL)
Location -32.005049° 141.470829°
Runways 2
Magnetic Variation 8.448° E
Sunrise 2017-12-18 19:25:07 UTC / 2017-12-19 05:55:07 Local
Sunset 2017-12-19 09:39:37 UTC / 2017-12-19 20:09:37 Local
Advertisement - Login to hide

Runways

ID Width Length Bearing (true) Bearing (mag) Surface Threshold Offset Overrun Length
05 98 ft / 30 m 8,247 ft / 2,514 m 55.76° 47.31° Asphalt 0 ft / 0 m 0 ft / 0 m
14 98 ft / 30 m 3,284 ft / 1,001 m 143.12° 134.67° Dirt 0 ft / 0 m 0 ft / 0 m
23 98 ft / 30 m 8,247 ft / 2,514 m 235.74° 227.29° Asphalt 0 ft / 0 m 0 ft / 0 m
32 98 ft / 30 m 3,284 ft / 1,001 m 323.12° 314.67° Dirt 0 ft / 0 m 0 ft / 0 m

Map

Weather


0- 5 10 15 20 25 30 35+ Temperature / ° C

Clouds and Precipitation
Forecast for 2017-12-19 00:00 UTC. Updated an hour ago

Ground ~20,000 ft ~40,000 ft Winds

METAR

YBHI 182200Z AUTO 02006KT 9999 // NCD 30/14 Q1005

TAF

Not found

Frequencies

Unicom 126.70 MHz CTAF
Warning: Do not use this data for real-world aviation or navigation. No guarantee of current accuracy is given.